createdAt,value
2022-10-03T00:01:44.347Z,27.70
2022-10-03T00:04:32.116Z,22.45
2022-10-03T00:07:18.627Z,17.80
2022-10-03T00:09:57.576Z,20.20
2022-10-03T00:12:47.301Z,24.33
2022-10-03T00:15:21.984Z,20.42
2022-10-03T00:18:02.262Z,14.82
2022-10-03T00:20:49.662Z,22.63
2022-10-03T00:23:25.738Z,18.35
2022-10-03T00:26:21.970Z,25.00
2022-10-03T00:28:59.416Z,24.52
2022-10-03T00:31:43.699Z,23.15
2022-10-03T00:34:20.048Z,14.13
2022-10-03T00:36:58.413Z,16.25
2022-10-03T00:39:40.467Z,14.77
2022-10-03T00:42:40.252Z,19.10
2022-10-03T00:45:51.182Z,20.27
2022-10-03T00:48:48.480Z,14.05
2022-10-03T00:51:34.673Z,24.70
2022-10-03T00:54:32.225Z,17.45
2022-10-03T00:57:27.279Z,16.30
2022-10-03T01:00:14.456Z,16.50
2022-10-03T01:03:05.367Z,20.67
2022-10-03T01:05:49.235Z,16.67
2022-10-03T01:08:38.560Z,22.27
2022-10-03T01:11:16.954Z,25.77
2022-10-03T01:14:00.047Z,17.55
2022-10-03T01:16:37.970Z,23.75
2022-10-03T01:19:29.038Z,22.45
2022-10-03T01:22:10.041Z,24.60
2022-10-03T01:24:53.211Z,19.30
2022-10-03T01:27:29.931Z,20.70
2022-10-03T01:30:21.586Z,19.73
2022-10-03T01:32:56.060Z,18.67
2022-10-03T01:35:40.354Z,23.40
2022-10-03T01:38:20.865Z,23.13
2022-10-03T01:41:03.314Z,31.50
2022-10-03T01:43:39.431Z,23.20
2022-10-03T01:46:16.915Z,26.48
2022-10-03T01:48:55.514Z,25.05
2022-10-03T01:51:29.837Z,21.63
2022-10-03T01:54:15.070Z,25.08
2022-10-03T01:56:48.827Z,23.05
2022-10-03T01:59:23.844Z,28.52
2022-10-03T02:02:01.036Z,21.92
2022-10-03T02:04:43.544Z,23.67
2022-10-03T02:07:22.053Z,22.88
2022-10-03T02:10:03.354Z,21.80
2022-10-03T02:12:36.360Z,24.02
2022-10-03T02:15:15.572Z,23.90
2022-10-03T02:17:52.334Z,20.95
2022-10-03T02:20:26.440Z,24.55
2022-10-03T02:22:56.465Z,23.40
2022-10-03T02:25:42.077Z,22.98
2022-10-03T02:28:33.074Z,25.73
2022-10-03T02:31:16.144Z,19.20
2022-10-03T02:34:07.977Z,25.05
2022-10-03T02:37:26.186Z,20.27
2022-10-03T02:40:24.044Z,23.33
2022-10-03T02:43:35.110Z,22.38
2022-10-03T02:46:38.032Z,27.58
2022-10-03T02:49:42.248Z,24.90
2022-10-03T02:52:46.686Z,27.13
2022-10-03T02:55:51.537Z,24.40
2022-10-03T02:59:16.875Z,25.25
2022-10-03T03:02:05.376Z,22.83
2022-10-03T03:05:06.183Z,21.83
2022-10-03T03:07:51.935Z,19.10
2022-10-03T03:11:00.447Z,21.70
2022-10-03T03:14:06.165Z,22.15
2022-10-03T03:16:57.227Z,25.48
2022-10-03T03:19:52.471Z,24.15
2022-10-03T03:22:41.936Z,19.52
2022-10-03T03:25:34.081Z,23.08
2022-10-03T03:28:23.123Z,23.00
2022-10-03T03:30:59.451Z,22.50
2022-10-03T03:33:39.896Z,22.48
2022-10-03T03:36:23.331Z,23.25
2022-10-03T03:39:03.561Z,22.40
2022-10-03T03:41:51.748Z,24.52
2022-10-03T03:44:47.750Z,25.20
2022-10-03T03:47:38.924Z,28.42
2022-10-03T03:50:31.268Z,23.77
2022-10-03T03:53:27.666Z,21.95
2022-10-03T03:56:23.460Z,24.52
2022-10-03T03:59:02.200Z,22.45
2022-10-03T04:01:46.039Z,19.48
2022-10-03T04:04:29.268Z,22.63
2022-10-03T04:07:08.981Z,21.92
2022-10-03T04:10:06.948Z,24.13
2022-10-03T04:13:02.130Z,20.30
2022-10-03T04:15:52.199Z,21.92
2022-10-03T04:18:53.304Z,21.52
2022-10-03T04:21:56.120Z,20.65
2022-10-03T04:24:37.767Z,20.83
2022-10-03T04:27:22.133Z,20.92
2022-10-03T04:30:04.375Z,16.42
2022-10-03T04:32:45.364Z,26.90
2022-10-03T04:35:47.836Z,23.52
2022-10-03T04:38:24.495Z,18.33
2022-10-03T04:41:02.095Z,17.67
2022-10-03T04:43:41.712Z,21.58
2022-10-03T04:46:27.372Z,17.75
2022-10-03T04:49:16.364Z,22.40
2022-10-03T04:51:55.529Z,18.05
2022-10-03T04:54:31.971Z,20.05
2022-10-03T04:57:08.633Z,17.92
2022-10-03T04:59:47.284Z,17.55
2022-10-03T05:02:33.486Z,24.00
2022-10-03T05:05:30.891Z,21.02
2022-10-03T05:08:15.633Z,16.55
2022-10-03T05:11:09.006Z,14.38
2022-10-03T05:13:58.335Z,16.55
2022-10-03T05:16:36.303Z,14.70
2022-10-03T05:19:29.261Z,20.67
2022-10-03T05:22:03.614Z,19.30
2022-10-03T05:24:38.153Z,18.63
2022-10-03T05:27:20.943Z,18.45
2022-10-03T05:29:58.823Z,21.70
2022-10-03T05:32:34.237Z,18.92
2022-10-03T05:35:23.221Z,15.85
2022-10-03T05:38:19.824Z,22.25
2022-10-03T05:41:02.128Z,20.48
2022-10-03T05:43:45.818Z,17.98
2022-10-03T05:46:23.615Z,18.48
2022-10-03T05:49:04.068Z,19.23
2022-10-03T05:51:51.588Z,19.67
2022-10-03T05:54:48.898Z,14.98
2022-10-03T05:57:48.326Z,22.55
2022-10-03T06:00:21.601Z,16.20
2022-10-03T06:03:31.744Z,18.58
2022-10-03T06:06:21.000Z,18.63
2022-10-03T06:09:36.292Z,16.70
2022-10-03T06:12:10.181Z,18.30
2022-10-03T06:15:07.245Z,18.45
2022-10-03T06:17:53.735Z,17.60
2022-10-03T06:20:59.880Z,14.63
2022-10-03T06:23:48.579Z,13.95
2022-10-03T06:26:58.193Z,14.63
2022-10-03T06:29:54.907Z,15.43
2022-10-03T06:32:51.231Z,20.38
2022-10-03T06:35:59.826Z,16.00
2022-10-03T06:39:18.349Z,16.77
2022-10-03T06:42:39.160Z,14.95
2022-10-03T06:45:53.166Z,14.07
2022-10-03T06:48:44.856Z,12.10
2022-10-03T06:51:34.093Z,11.85
2022-10-03T06:54:17.744Z,15.20
2022-10-03T06:57:08.148Z,12.80
2022-10-03T07:00:09.682Z,12.73
2022-10-03T07:03:06.909Z,11.23
2022-10-03T07:06:27.282Z,11.43
2022-10-03T07:09:47.389Z,12.38
2022-10-03T07:12:57.765Z,11.48
2022-10-03T07:16:25.878Z,12.13
2022-10-03T07:19:24.190Z,13.15
2022-10-03T07:22:23.673Z,13.50
2022-10-03T07:25:29.526Z,7.85
2022-10-03T07:28:21.052Z,8.02
2022-10-03T07:31:05.390Z,8.30
2022-10-03T07:34:10.578Z,10.05
2022-10-03T07:37:29.513Z,8.45
2022-10-03T07:40:31.680Z,7.18
2022-10-03T07:43:45.784Z,9.60
2022-10-03T07:46:55.644Z,7.65
2022-10-03T07:49:46.877Z,7.63
2022-10-03T07:52:47.839Z,7.70
2022-10-03T07:55:32.324Z,7.45
2022-10-03T07:58:26.428Z,9.48
2022-10-03T08:01:32.432Z,7.22
2022-10-03T08:04:30.855Z,9.38
2022-10-03T08:07:22.224Z,5.88
2022-10-03T08:10:15.545Z,6.65
2022-10-03T08:13:07.791Z,9.05
2022-10-03T08:15:54.361Z,5.78
2022-10-03T08:19:08.396Z,5.10
2022-10-03T08:21:57.058Z,5.75
2022-10-03T08:25:03.016Z,6.63
2022-10-03T08:27:57.956Z,6.63
2022-10-03T08:30:42.654Z,5.07
2022-10-03T08:33:39.187Z,8.27
2022-10-03T08:36:50.453Z,8.40
2022-10-03T08:39:37.979Z,9.55
2022-10-03T08:43:00.327Z,8.20
2022-10-03T08:45:58.334Z,3.85
2022-10-03T08:49:02.078Z,3.60
2022-10-03T08:52:04.991Z,5.45
2022-10-03T08:55:14.501Z,4.55
2022-10-03T08:58:26.680Z,5.63
2022-10-03T09:01:20.021Z,3.92
2022-10-03T09:04:37.544Z,6.32
2022-10-03T09:07:23.202Z,6.45
2022-10-03T09:10:36.502Z,5.03
2022-10-03T09:13:38.190Z,6.78
2022-10-03T09:16:57.508Z,3.80
2022-10-03T09:20:11.350Z,5.20
2022-10-03T09:23:06.692Z,7.18
2022-10-03T09:26:00.106Z,8.20
2022-10-03T09:28:53.733Z,5.47
2022-10-03T09:31:45.749Z,5.50
2022-10-03T09:34:41.026Z,6.88
2022-10-03T09:37:43.040Z,5.13
2022-10-03T09:40:44.833Z,8.50
2022-10-03T09:43:36.728Z,8.27
2022-10-03T09:46:28.958Z,6.22
2022-10-03T09:49:41.858Z,9.27
2022-10-03T09:52:27.611Z,9.05
2022-10-03T09:55:27.789Z,8.27
2022-10-03T09:58:29.647Z,5.10
2022-10-03T10:01:14.846Z,7.25
2022-10-03T10:04:14.391Z,6.85
2022-10-03T10:07:30.699Z,3.88
2022-10-03T10:10:24.130Z,4.85
2022-10-03T10:13:19.724Z,4.32
2022-10-03T10:16:18.623Z,5.07
2022-10-03T10:19:18.223Z,4.20
2022-10-03T10:22:11.365Z,5.20
2022-10-03T10:25:17.114Z,17.50
2022-10-03T10:28:21.143Z,4.53
2022-10-03T10:31:34.734Z,6.10
2022-10-03T10:34:40.374Z,7.22
2022-10-03T10:37:46.156Z,4.68
2022-10-03T10:40:49.239Z,3.70
2022-10-03T10:44:06.187Z,3.30
2022-10-03T10:47:07.192Z,3.45
2022-10-03T10:50:05.134Z,2.85
2022-10-03T10:53:12.223Z,3.85
2022-10-03T10:56:18.896Z,4.35
2022-10-03T10:59:24.480Z,3.75
2022-10-03T11:02:34.011Z,4.10
2022-10-03T11:05:45.395Z,2.80
2022-10-03T11:08:51.725Z,2.20
2022-10-03T11:11:51.419Z,3.33
2022-10-03T11:15:17.798Z,3.97
2022-10-03T11:18:25.112Z,4.93
2022-10-03T11:21:26.041Z,3.75
2022-10-03T11:24:45.437Z,7.32
2022-10-03T11:27:56.469Z,4.70
2022-10-03T11:31:03.763Z,6.50
2022-10-03T11:34:14.382Z,3.50
2022-10-03T11:37:12.825Z,2.50
2022-10-03T11:39:49.223Z,3.60
2022-10-03T11:42:39.795Z,2.97
2022-10-03T11:45:20.702Z,4.22
2022-10-03T11:48:04.457Z,6.68
2022-10-03T11:50:43.096Z,4.00
2022-10-03T11:53:39.970Z,6.75
2022-10-03T11:56:51.187Z,4.68
2022-10-03T11:59:56.375Z,4.90
2022-10-03T12:02:51.425Z,2.70
2022-10-03T12:05:41.332Z,6.65
2022-10-03T12:08:38.568Z,3.67
2022-10-03T12:11:17.697Z,5.30
2022-10-03T12:14:23.104Z,3.08
2022-10-03T12:17:07.195Z,3.72
2022-10-03T12:19:47.311Z,3.60
2022-10-03T12:22:29.780Z,3.15
2022-10-03T12:25:08.008Z,2.15
2022-10-03T12:27:45.206Z,2.70
2022-10-03T12:30:17.624Z,2.72
2022-10-03T12:33:02.873Z,4.07
2022-10-03T12:35:44.327Z,8.70
2022-10-03T12:38:42.409Z,5.93
2022-10-03T12:41:26.002Z,3.17
2022-10-03T12:44:12.519Z,2.65
2022-10-03T12:46:50.019Z,12.95
2022-10-03T12:49:30.854Z,4.70
2022-10-03T12:52:02.489Z,2.88
2022-10-03T12:54:59.783Z,5.65
2022-10-03T12:58:03.610Z,3.28
2022-10-03T13:00:37.720Z,4.65
2022-10-03T13:03:26.921Z,9.18
2022-10-03T13:06:18.511Z,2.22
2022-10-03T13:09:10.802Z,6.05
2022-10-03T13:11:54.229Z,2.55
2022-10-03T13:14:48.284Z,6.97
2022-10-03T13:17:40.138Z,2.90
2022-10-03T13:20:29.390Z,8.70
2022-10-03T13:23:12.810Z,4.35
2022-10-03T13:25:50.726Z,2.85
2022-10-03T13:28:50.267Z,7.60
2022-10-03T13:31:47.197Z,5.25
2022-10-03T13:34:21.931Z,9.02
2022-10-03T13:36:56.395Z,2.65
2022-10-03T13:39:49.708Z,2.63
2022-10-03T13:42:25.094Z,4.93
2022-10-03T13:44:59.264Z,4.82
2022-10-03T13:47:44.884Z,3.28
2022-10-03T13:50:24.843Z,2.50
2022-10-03T13:53:02.404Z,9.43
2022-10-03T13:55:43.619Z,4.55
2022-10-03T13:58:41.115Z,3.75
2022-10-03T14:01:30.205Z,2.50
2022-10-03T14:04:25.493Z,8.23
2022-10-03T14:07:03.621Z,2.20
2022-10-03T14:09:43.108Z,3.22
2022-10-03T14:12:43.645Z,2.47
2022-10-03T14:15:30.158Z,2.65
2022-10-03T14:18:08.426Z,3.22
2022-10-03T14:20:44.334Z,2.42
2022-10-03T14:23:34.036Z,3.13
2022-10-03T14:26:33.914Z,2.67
2022-10-03T14:29:09.740Z,4.80
2022-10-03T14:31:49.806Z,5.15
2022-10-03T14:34:36.540Z,2.78
2022-10-03T14:37:27.899Z,9.30
2022-10-03T14:40:17.102Z,7.63
2022-10-03T14:43:18.060Z,5.63
2022-10-03T14:45:53.025Z,5.47
2022-10-03T14:48:38.057Z,7.57
2022-10-03T14:51:16.611Z,2.63
2022-10-03T14:54:05.411Z,3.03
2022-10-03T14:57:05.699Z,3.42
2022-10-03T14:59:37.561Z,2.17
2022-10-03T15:02:31.437Z,4.50
2022-10-03T15:05:09.423Z,2.40
2022-10-03T15:07:41.513Z,2.53
2022-10-03T15:10:20.090Z,3.17
2022-10-03T15:12:54.720Z,4.10
2022-10-03T15:15:28.126Z,2.92
2022-10-03T15:18:09.260Z,3.65
2022-10-03T15:20:58.703Z,3.58
2022-10-03T15:23:33.513Z,5.50
2022-10-03T15:26:04.232Z,2.85
2022-10-03T15:29:01.019Z,3.72
2022-10-03T15:31:48.694Z,6.47
2022-10-03T15:34:22.762Z,3.08
2022-10-03T15:36:58.744Z,5.35
2022-10-03T15:39:57.353Z,7.85
2022-10-03T15:42:45.122Z,3.10
2022-10-03T15:45:23.150Z,3.90
2022-10-03T15:47:54.322Z,5.47
2022-10-03T15:50:33.602Z,8.55
2022-10-03T15:53:34.423Z,2.72
2022-10-03T15:56:09.258Z,5.07
2022-10-03T15:58:40.563Z,2.83
2022-10-03T16:01:18.313Z,3.90
2022-10-03T16:03:55.437Z,2.97
2022-10-03T16:06:35.680Z,4.05
2022-10-03T16:09:09.855Z,7.65
2022-10-03T16:11:55.095Z,3.53
2022-10-03T16:14:26.133Z,6.70
2022-10-03T16:17:00.208Z,3.30
2022-10-03T16:19:38.072Z,3.65
2022-10-03T16:22:21.150Z,2.97
2022-10-03T16:25:03.720Z,2.28
2022-10-03T16:27:47.961Z,3.65
2022-10-03T16:30:28.503Z,3.58
2022-10-03T16:33:07.236Z,3.05
2022-10-03T16:35:39.669Z,3.33
2022-10-03T16:38:21.521Z,4.38
2022-10-03T16:40:56.640Z,4.97
2022-10-03T16:43:29.435Z,4.90
2022-10-03T16:46:01.225Z,9.77
2022-10-03T16:48:49.371Z,4.13
2022-10-03T16:51:21.359Z,6.60
2022-10-03T16:53:53.362Z,6.10
2022-10-03T16:56:26.379Z,3.92
2022-10-03T16:58:59.043Z,6.35
2022-10-03T17:01:33.458Z,3.40
2022-10-03T17:04:15.938Z,6.43
2022-10-03T17:06:50.007Z,6.03
2022-10-03T17:09:28.033Z,5.53
2022-10-03T17:12:00.834Z,4.82
2022-10-03T17:14:37.458Z,5.88
2022-10-03T17:17:17.334Z,4.57
2022-10-03T17:19:51.251Z,7.43
2022-10-03T17:22:22.877Z,4.97
2022-10-03T17:24:54.903Z,6.25
2022-10-03T17:27:30.063Z,3.33
2022-10-03T17:30:03.696Z,3.40
2022-10-03T17:32:38.210Z,5.45
2022-10-03T17:35:15.648Z,5.07
2022-10-03T17:38:44.707Z,6.75
2022-10-03T17:41:18.589Z,6.15
2022-10-03T17:43:59.590Z,7.70
2022-10-03T17:46:39.986Z,6.57
2022-10-03T17:49:22.042Z,5.35
2022-10-03T17:51:56.257Z,7.05
2022-10-03T17:54:29.720Z,4.18
2022-10-03T17:57:06.083Z,4.22
2022-10-03T17:59:44.399Z,5.90
2022-10-03T18:02:21.697Z,4.07
2022-10-03T18:04:59.245Z,5.30
2022-10-03T18:07:30.326Z,5.78
2022-10-03T18:09:59.299Z,6.00
2022-10-03T18:12:35.238Z,6.57
2022-10-03T18:15:41.208Z,11.23
2022-10-03T18:18:38.648Z,4.75
2022-10-03T18:21:11.953Z,5.95
2022-10-03T18:23:55.926Z,7.82
2022-10-03T18:26:28.618Z,4.85
2022-10-03T18:29:11.624Z,7.70
2022-10-03T18:31:45.366Z,8.13
2022-10-03T18:34:21.267Z,4.85
2022-10-03T18:36:53.334Z,7.05
2022-10-03T18:39:26.568Z,8.48
2022-10-03T18:41:59.572Z,4.63
2022-10-03T18:44:31.382Z,6.20
2022-10-03T18:47:08.212Z,6.95
2022-10-03T18:49:41.392Z,7.93
2022-10-03T18:52:20.781Z,5.93
2022-10-03T18:55:02.263Z,7.47
2022-10-03T18:57:36.933Z,4.97
2022-10-03T19:00:18.160Z,5.28
2022-10-03T19:02:54.167Z,5.15
2022-10-03T19:05:29.414Z,5.63
2022-10-03T19:08:10.347Z,3.58
2022-10-03T19:10:40.939Z,7.55
2022-10-03T19:13:29.907Z,7.00
2022-10-03T19:16:15.317Z,8.75
2022-10-03T19:18:47.406Z,5.93
2022-10-03T19:21:21.127Z,5.60
2022-10-03T19:23:54.714Z,8.50
2022-10-03T19:26:30.301Z,8.60
2022-10-03T19:29:05.926Z,7.18
2022-10-03T19:31:40.470Z,12.93
2022-10-03T19:34:20.901Z,8.00
2022-10-03T19:36:52.608Z,7.53
2022-10-03T19:39:23.139Z,7.53
2022-10-03T19:41:55.698Z,6.35
2022-10-03T19:44:26.756Z,9.57
2022-10-03T19:47:08.249Z,7.30
2022-10-03T19:49:53.851Z,9.40
2022-10-03T19:52:32.043Z,8.55
2022-10-03T19:55:03.190Z,8.98
2022-10-03T19:57:40.356Z,5.95
2022-10-03T20:00:22.483Z,9.27
2022-10-03T20:02:58.450Z,10.27
2022-10-03T20:05:33.178Z,6.72
2022-10-03T20:08:24.315Z,8.02
2022-10-03T20:11:14.428Z,7.93
2022-10-03T20:13:44.307Z,9.82
2022-10-03T20:16:16.572Z,11.57
2022-10-03T20:18:48.210Z,7.15
2022-10-03T20:21:20.947Z,10.85
2022-10-03T20:23:52.737Z,8.88
2022-10-03T20:26:26.305Z,8.40
2022-10-03T20:29:11.489Z,9.70
2022-10-03T20:31:41.000Z,10.07
2022-10-03T20:34:14.975Z,9.50
2022-10-03T20:36:49.405Z,8.38
2022-10-03T20:39:23.473Z,11.32
2022-10-03T20:42:02.137Z,9.45
2022-10-03T20:45:00.832Z,9.50
2022-10-03T20:47:59.743Z,7.95
2022-10-03T20:50:31.260Z,9.02
2022-10-03T20:53:01.120Z,13.43
2022-10-03T20:55:37.454Z,9.80
2022-10-03T20:58:18.447Z,11.00
2022-10-03T21:00:49.872Z,9.32
2022-10-03T21:03:30.500Z,9.60
2022-10-03T21:06:01.168Z,10.32
2022-10-03T21:08:36.123Z,9.43
2022-10-03T21:11:23.387Z,8.27
2022-10-03T21:13:56.871Z,9.00
2022-10-03T21:16:30.654Z,11.88
2022-10-03T21:19:02.417Z,9.95
2022-10-03T21:21:40.809Z,10.18
2022-10-03T21:24:16.713Z,10.93
2022-10-03T21:26:48.586Z,11.48
2022-10-03T21:29:27.773Z,10.48
2022-10-03T21:32:10.797Z,9.70
2022-10-03T21:34:47.980Z,14.95
2022-10-03T21:37:22.120Z,9.68
2022-10-03T21:40:06.438Z,10.05
2022-10-03T21:42:57.927Z,8.75
2022-10-03T21:45:37.112Z,9.55
2022-10-03T21:48:15.841Z,12.30
2022-10-03T21:50:53.140Z,10.13
2022-10-03T21:53:31.442Z,9.15
2022-10-03T21:56:21.804Z,18.38
2022-10-03T21:59:16.486Z,10.80
2022-10-03T22:01:53.627Z,11.48
2022-10-03T22:04:25.266Z,11.50
2022-10-03T22:07:03.309Z,11.98
2022-10-03T22:09:32.426Z,11.43
2022-10-03T22:12:02.877Z,10.43
2022-10-03T22:14:40.799Z,12.20
2022-10-03T22:17:17.470Z,8.82
2022-10-03T22:19:51.081Z,10.07
2022-10-03T22:22:40.903Z,12.00
2022-10-03T22:25:20.246Z,11.70
2022-10-03T22:27:58.468Z,9.02
2022-10-03T22:30:29.822Z,8.70
2022-10-03T22:33:11.320Z,11.32
2022-10-03T22:35:52.302Z,10.63
2022-10-03T22:38:24.752Z,11.68
2022-10-03T22:40:55.009Z,11.10
2022-10-03T22:43:24.280Z,10.07
2022-10-03T22:45:56.585Z,12.93
2022-10-03T22:48:28.912Z,9.70
2022-10-03T22:50:58.205Z,10.23
2022-10-03T22:53:30.579Z,10.77
2022-10-03T22:56:00.282Z,9.23
2022-10-03T22:58:31.367Z,10.35
2022-10-03T23:01:02.374Z,12.85
2022-10-03T23:03:33.442Z,10.57
2022-10-03T23:06:34.552Z,12.13
2022-10-03T23:09:09.717Z,8.93
2022-10-03T23:11:41.090Z,11.27
2022-10-03T23:14:18.826Z,8.35
2022-10-03T23:16:54.578Z,9.70
2022-10-03T23:19:36.082Z,11.10
2022-10-03T23:22:05.924Z,7.53
2022-10-03T23:24:40.445Z,14.18
2022-10-03T23:27:56.670Z,6.95
2022-10-03T23:30:54.158Z,16.00
2022-10-03T23:33:57.979Z,9.05
2022-10-03T23:36:26.334Z,8.50
2022-10-03T23:39:02.745Z,8.52
2022-10-03T23:42:01.942Z,7.40
2022-10-03T23:44:43.664Z,8.35
2022-10-03T23:47:17.546Z,12.07
2022-10-03T23:49:49.609Z,8.68
2022-10-03T23:52:23.303Z,13.02
2022-10-03T23:54:54.728Z,11.70
2022-10-03T23:57:26.825Z,10.63
2022-10-03T23:59:55.173Z,11.48
